Time;durP1;ratioP1;P1;durP2;ratioP2;P2;SDS_P1;SDS_P2;PMS_P1;PMS_P2;Temp;Humidity;BMP_temperature;BMP_pressure;BME280_temperature;BME280_humidity;BME280_pressure;Samples;Min_cycle;Max_cycle;Signal;HPM_P1;HPM_P2
2023/06/06 00:01:56;;;;;;;5.03;1.33;;;;;;;17.50;62.25;101393.63;5035930;28;20819;-71
2023/06/06 00:04:23;;;;;;;4.90;1.33;;;;;;;17.45;62.76;101402.81;5035537;28;20485;-71
2023/06/06 00:06:52;;;;;;;5.00;1.17;;;;;;;17.42;63.32;101410.88;5035756;28;20505;-71
2023/06/06 00:09:19;;;;;;;6.47;1.30;;;;;;;17.35;63.18;101403.97;5035262;28;20936;-71
2023/06/06 00:11:46;;;;;;;6.83;1.70;;;;;;;17.35;62.87;101393.03;5035456;28;20443;-71
2023/06/06 00:14:18;;;;;;;7.63;1.57;;;;;;;17.31;64.13;101392.06;5035778;28;20443;-71
2023/06/06 00:16:46;;;;;;;5.10;1.50;;;;;;;17.26;63.08;101394.94;5035432;28;20944;-71
2023/06/06 00:19:15;;;;;;;6.20;1.80;;;;;;;17.22;62.80;101393.19;5035725;28;20450;-71
2023/06/06 00:21:42;;;;;;;5.67;1.33;;;;;;;17.18;62.36;101395.81;5035597;28;20860;-71
2023/06/06 00:24:11;;;;;;;19.93;1.80;;;;;;;17.17;63.31;101396.09;5035159;28;20483;-71
2023/06/06 00:26:37;;;;;;;7.70;1.53;;;;;;;17.11;63.29;101390.00;5035467;28;20533;-71
2023/06/06 00:29:04;;;;;;;6.37;1.60;;;;;;;17.09;63.43;101387.59;5035165;28;20988;-71
2023/06/06 00:31:31;;;;;;;5.10;1.30;;;;;;;17.06;64.07;101395.66;5035044;28;20490;-71
2023/06/06 00:33:58;;;;;;;4.93;1.20;;;;;;;17.02;63.67;101384.56;5035158;28;20553;-72
2023/06/06 00:36:26;;;;;;;6.43;1.00;;;;;;;16.99;63.31;101387.13;5035232;28;20505;-72
2023/06/06 00:38:52;;;;;;;5.20;1.20;;;;;;;16.92;64.19;101384.09;5035248;28;20451;-73
2023/06/06 00:41:20;;;;;;;6.60;1.43;;;;;;;16.89;64.66;101382.81;5035176;28;20457;-71
2023/06/06 00:43:46;;;;;;;5.80;1.63;;;;;;;16.79;64.65;101378.47;5035107;28;20454;-71
2023/06/06 00:46:14;;;;;;;6.80;1.83;;;;;;;16.75;64.04;101377.50;5035088;28;20498;-71
2023/06/06 00:48:40;;;;;;;4.90;1.00;;;;;;;16.70;64.01;101376.84;5035094;28;20451;-72
2023/06/06 00:51:09;;;;;;;5.70;1.60;;;;;;;16.61;63.78;101383.13;5034794;28;20454;-71
2023/06/06 00:53:37;;;;;;;6.73;1.23;;;;;;;16.57;64.71;101384.88;5034761;28;20428;-71
2023/06/06 00:56:06;;;;;;;4.83;1.23;;;;;;;16.49;64.26;101382.16;5034576;28;20463;-71
2023/06/06 00:58:33;;;;;;;4.90;1.00;;;;;;;16.40;64.48;101380.22;5034935;28;20442;-71
2023/06/06 01:01:01;;;;;;;9.00;1.60;;;;;;;16.29;65.14;101376.19;5034837;28;20533;-71
2023/06/06 01:03:29;;;;;;;4.90;1.30;;;;;;;16.30;65.68;101385.19;5034575;28;20443;-70
2023/06/06 01:05:56;;;;;;;13.93;1.97;;;;;;;16.23;66.05;101380.19;5034313;28;20479;-71
2023/06/06 01:08:23;;;;;;;6.00;1.50;;;;;;;16.18;66.34;101374.88;5034698;28;20827;-71
2023/06/06 01:11:06;;;;;;;7.10;1.77;;;;;;;16.17;66.11;101381.47;5034694;28;20446;-71
2023/06/06 01:13:39;;;;;;;4.80;1.10;;;;;;;16.13;65.94;101375.03;5034328;28;20473;-71
2023/06/06 01:16:10;;;;;;;4.60;1.07;;;;;;;16.09;66.13;101376.78;5034560;28;20550;-71
2023/06/06 01:18:37;;;;;;;6.13;1.50;;;;;;;16.07;66.15;101370.81;5034569;28;20427;-71
2023/06/06 01:21:05;;;;;;;6.03;1.47;;;;;;;16.10;65.90;101372.94;5033771;28;20479;-71
2023/06/06 01:23:34;;;;;;;5.00;1.20;;;;;;;16.05;65.92;101375.81;5034423;28;20870;-71
2023/06/06 01:28:28;;;;;;;5.10;1.33;;;;;;;16.01;65.98;101372.91;5051573;28;20845;-69
2023/06/06 01:30:54;;;;;;;5.80;1.90;;;;;;;16.02;66.46;101374.50;5054132;28;20519;-69
2023/06/06 01:33:30;;;;;;;7.10;1.50;;;;;;;16.00;66.18;101376.78;5054212;28;20439;-69
2023/06/06 01:36:07;;;;;;;5.07;1.40;;;;;;;15.96;66.02;101372.25;5054017;28;20466;-69
2023/06/06 01:38:41;;;;;;;9.50;2.23;;;;;;;15.97;66.01;101371.13;5053775;28;20462;-68
2023/06/06 01:41:10;;;;;;;8.10;1.87;;;;;;;15.98;65.99;101378.19;5053784;28;20419;-68
2023/06/06 01:43:39;;;;;;;5.70;1.50;;;;;;;16.02;66.04;101379.19;5054015;28;20503;-68
2023/06/06 01:46:06;;;;;;;7.43;1.67;;;;;;;15.99;66.05;101379.84;5053716;28;20509;-69
2023/06/06 01:48:33;;;;;;;7.77;1.80;;;;;;;15.98;65.66;101380.94;5053640;28;20533;-66
2023/06/06 01:51:00;;;;;;;5.87;1.77;;;;;;;15.93;65.92;101378.34;5053553;28;20481;-66
2023/06/06 01:53:26;;;;;;;5.50;1.40;;;;;;;15.92;65.68;101387.69;5053379;28;20442;-65
2023/06/06 01:55:55;;;;;;;5.30;1.60;;;;;;;15.91;65.93;101375.16;5053397;28;20834;-68
2023/06/06 01:58:22;;;;;;;5.53;1.80;;;;;;;15.88;65.84;101384.78;5053754;28;20446;-67
2023/06/06 02:00:49;;;;;;;5.57;1.30;;;;;;;15.83;65.55;101382.19;5053611;28;20454;-68
2023/06/06 02:03:15;;;;;;;6.83;1.50;;;;;;;15.86;65.76;101387.81;5053560;28;20794;-68
2023/06/06 02:05:42;;;;;;;5.57;1.60;;;;;;;15.87;65.73;101385.91;5053346;28;20482;-68
2023/06/06 02:08:08;;;;;;;4.63;0.97;;;;;;;15.84;65.87;101379.13;5053513;28;20446;-69
2023/06/06 02:10:35;;;;;;;6.57;1.60;;;;;;;15.80;66.02;101382.81;5053644;28;20481;-67
2023/06/06 02:13:03;;;;;;;5.10;1.30;;;;;;;15.76;66.35;101379.09;5053646;28;20946;-69
2023/06/06 02:15:30;;;;;;;7.07;1.67;;;;;;;15.79;66.61;101381.22;5053420;28;20442;-69
2023/06/06 02:17:56;;;;;;;6.57;1.43;;;;;;;15.79;66.88;101381.22;5053458;28;20536;-68
2023/06/06 02:20:23;;;;;;;5.33;1.43;;;;;;;15.77;65.99;101372.53;5053499;28;20443;-68
2023/06/06 02:22:49;;;;;;;14.30;1.60;;;;;;;15.76;66.21;101377.19;5053067;28;20986;-68
2023/06/06 02:25:16;;;;;;;6.07;1.73;;;;;;;15.76;66.37;101374.47;5053145;28;20474;-72
2023/06/06 02:27:44;;;;;;;5.50;1.30;;;;;;;15.76;66.83;101377.19;5052964;28;20478;-68
2023/06/06 02:30:13;;;;;;;5.90;1.60;;;;;;;15.81;66.41;101373.53;5053510;28;20459;-68
2023/06/06 02:32:41;;;;;;;6.10;1.47;;;;;;;15.88;65.48;101377.38;5053677;28;20481;-68
2023/06/06 02:35:09;;;;;;;6.13;2.17;;;;;;;15.85;66.38;101369.03;5053387;28;20469;-68
2023/06/06 02:37:35;;;;;;;5.70;1.30;;;;;;;15.84;65.66;101378.31;5053296;28;20508;-68
2023/06/06 02:40:08;;;;;;;5.90;1.50;;;;;;;15.89;65.84;101370.81;5053209;28;20528;-67
2023/06/06 02:42:35;;;;;;;6.77;1.70;;;;;;;15.92;65.86;101365.81;5053016;28;20433;-67
2023/06/06 02:45:01;;;;;;;10.00;1.50;;;;;;;15.91;66.11;101366.94;5053010;28;20496;-68
2023/06/06 02:47:29;;;;;;;6.63;1.80;;;;;;;15.90;66.08;101371.63;5052744;28;20466;-68
2023/06/06 02:49:56;;;;;;;5.63;1.40;;;;;;;15.98;65.02;101375.47;5053072;28;20872;-68
2023/06/06 02:52:23;;;;;;;5.73;1.53;;;;;;;15.99;64.92;101374.38;5053184;28;20477;-68
2023/06/06 02:54:49;;;;;;;5.63;1.40;;;;;;;16.00;64.59;101373.25;5052994;28;20449;-69
2023/06/06 02:57:16;;;;;;;6.20;1.90;;;;;;;15.99;64.70;101372.44;5052608;28;20458;-67
2023/06/06 02:59:42;;;;;;;7.83;2.17;;;;;;;15.95;64.75;101373.41;5053054;28;20442;-68
2023/06/06 03:02:09;;;;;;;5.53;1.50;;;;;;;15.93;65.14;101370.97;5053036;28;20444;-68
2023/06/06 03:04:37;;;;;;;5.53;1.67;;;;;;;15.92;65.42;101363.09;5052576;28;20434;-68
2023/06/06 03:07:04;;;;;;;7.30;2.20;;;;;;;15.85;66.00;101363.56;5052815;28;20500;-67
2023/06/06 03:09:31;;;;;;;9.87;1.93;;;;;;;15.81;66.69;101370.78;5052913;28;20825;-68
2023/06/06 03:11:57;;;;;;;5.33;1.30;;;;;;;15.76;67.13;101360.81;5052799;28;20525;-67
2023/06/06 03:14:24;;;;;;;5.80;1.57;;;;;;;15.79;67.56;101354.69;5052845;28;20896;-68
2023/06/06 03:16:51;;;;;;;5.60;1.70;;;;;;;15.72;68.17;101359.03;5052725;28;20458;-68
2023/06/06 03:19:18;;;;;;;5.67;1.80;;;;;;;15.71;68.59;101363.66;5052767;28;20489;-67
2023/06/06 03:21:46;;;;;;;6.30;1.30;;;;;;;15.75;69.16;101358.38;5052747;28;20472;-67
2023/06/06 03:24:13;;;;;;;6.20;1.60;;;;;;;15.70;69.14;101356.59;5052336;28;20450;-68
2023/06/06 03:26:40;;;;;;;7.20;1.70;;;;;;;15.62;69.29;101354.59;5052173;28;20995;-68
2023/06/06 03:29:06;;;;;;;7.87;1.60;;;;;;;15.59;69.46;101360.72;5052630;28;20447;-68
2023/06/06 03:31:33;;;;;;;6.60;1.63;;;;;;;15.53;69.78;101362.75;5052697;28;20528;-67
2023/06/06 03:34:00;;;;;;;9.23;2.00;;;;;;;15.52;69.77;101363.09;5052566;28;20442;-66
2023/06/06 03:36:27;;;;;;;6.67;1.93;;;;;;;15.53;69.94;101359.22;5052537;28;20459;-67
2023/06/06 03:38:55;;;;;;;6.77;2.00;;;;;;;15.50;70.83;101363.41;5052585;28;20450;-67
2023/06/06 03:41:21;;;;;;;8.73;2.13;;;;;;;15.38;71.57;101352.28;5052306;28;20441;-67
2023/06/06 03:43:48;;;;;;;7.50;1.90;;;;;;;15.42;71.88;101360.66;5052560;28;20971;-68
2023/06/06 03:46:15;;;;;;;6.50;1.37;;;;;;;15.39;72.37;101360.13;5055989;28;20584;-68
2023/06/06 03:48:41;;;;;;;5.63;1.33;;;;;;;15.41;72.50;101354.38;5056159;28;20904;-67
2023/06/06 03:51:08;;;;;;;5.30;1.40;;;;;;;15.45;72.11;101360.00;5056107;28;20532;-67
2023/06/06 03:53:34;;;;;;;5.20;1.43;;;;;;;15.42;72.14;101360.66;5056063;28;20442;-67
2023/06/06 03:56:04;;;;;;;7.80;1.90;;;;;;;15.39;72.39;101362.88;5055992;28;20490;-68
2023/06/06 03:58:31;;;;;;;6.57;1.93;;;;;;;15.33;73.28;101353.22;5055638;28;20474;-67
2023/06/06 04:00:58;;;;;;;5.90;1.70;;;;;;;15.41;73.27;101354.38;5055579;28;20496;-67
2023/06/06 04:03:25;;;;;;;6.87;1.90;;;;;;;15.46;72.67;101356.16;5056283;28;20430;-66
2023/06/06 04:05:53;;;;;;;7.67;2.30;;;;;;;15.50;73.16;101351.69;5055739;28;20489;-68
2023/06/06 04:08:20;;;;;;;5.10;1.30;;;;;;;15.47;72.92;101344.13;5055865;28;20446;-68
2023/06/06 04:10:47;;;;;;;6.17;1.87;;;;;;;15.42;72.82;101355.19;5055599;28;20477;-68
2023/06/06 04:13:15;;;;;;;5.83;1.77;;;;;;;15.35;73.64;101350.97;5055760;28;20438;-67
2023/06/06 04:15:42;;;;;;;6.73;2.00;;;;;;;15.45;73.75;101349.91;5055622;28;20435;-68
2023/06/06 04:18:09;;;;;;;9.53;1.80;;;;;;;15.47;73.95;101357.78;5055635;28;20454;-67
2023/06/06 04:20:35;;;;;;;6.07;1.97;;;;;;;15.53;73.59;101357.31;5055229;28;20876;-67
2023/06/06 04:23:02;;;;;;;6.00;1.87;;;;;;;15.61;73.84;101359.25;5055207;28;20940;-67
2023/06/06 04:25:28;;;;;;;6.97;1.80;;;;;;;15.68;73.56;101358.84;5055266;28;20536;-68
2023/06/06 04:27:55;;;;;;;5.63;1.87;;;;;;;15.76;72.87;101355.34;5055091;28;20845;-70
2023/06/06 04:30:23;;;;;;;5.50;1.50;;;;;;;15.84;72.19;101351.81;5055293;28;20488;-67
2023/06/06 04:32:50;;;;;;;5.53;1.50;;;;;;;15.91;71.31;101350.56;5055096;28;20439;-67
2023/06/06 04:35:17;;;;;;;6.07;1.83;;;;;;;15.95;72.09;101343.34;5055239;28;20446;-66
2023/06/06 04:37:48;;;;;;;6.93;1.20;;;;;;;15.97;71.82;101350.06;5055185;28;20845;-64
2023/06/06 04:40:15;;;;;;;7.10;1.73;;;;;;;16.03;71.77;101348.00;5055264;28;20476;-67
2023/06/06 04:42:41;;;;;;;6.10;2.03;;;;;;;16.07;70.66;101338.84;5055141;28;20543;-69
2023/06/06 04:45:09;;;;;;;7.07;1.30;;;;;;;16.16;70.06;101344.34;5054876;28;20966;-69
2023/06/06 04:47:40;;;;;;;5.57;1.80;;;;;;;16.25;70.49;101352.56;5054604;28;20561;-69
2023/06/06 04:50:08;;;;;;;6.17;1.60;;;;;;;16.30;70.47;101361.38;5054669;28;20434;-70
2023/06/06 04:52:35;;;;;;;6.87;1.83;;;;;;;16.35;71.02;101354.97;5054586;28;20434;-69
2023/06/06 04:55:03;;;;;;;6.47;1.87;;;;;;;16.40;70.99;101355.59;5054065;28;20852;-69
2023/06/06 04:57:29;;;;;;;9.13;1.87;;;;;;;16.44;69.90;101363.97;5053500;28;20482;-69
2023/06/06 04:59:56;;;;;;;6.07;1.53;;;;;;;16.48;69.25;101354.00;5054617;28;20481;-69
2023/06/06 05:02:28;;;;;;;6.77;1.47;;;;;;;16.54;68.79;101355.44;5054768;28;20438;-72
2023/06/06 05:04:58;;;;;;;7.50;2.13;;;;;;;16.58;68.42;101353.66;5054789;28;20441;-70
2023/06/06 05:07:25;;;;;;;6.00;1.80;;;;;;;16.65;68.00;101350.47;5054657;28;20480;-68
2023/06/06 05:09:52;;;;;;;5.83;1.53;;;;;;;16.73;67.31;101354.31;5054672;28;20441;-70
2023/06/06 05:12:18;;;;;;;4.73;1.00;;;;;;;16.97;71.08;101356.56;5054262;28;20478;-68
2023/06/06 05:14:45;;;;;;;5.10;1.43;;;;;;;17.14;68.10;101356.50;5054586;28;20521;-69
2023/06/06 05:17:14;;;;;;;4.80;1.20;;;;;;;17.23;66.75;101349.06;5054424;28;20469;-69
2023/06/06 05:19:41;;;;;;;6.97;1.97;;;;;;;17.28;67.68;101359.84;5054159;28;20477;-70
2023/06/06 05:22:09;;;;;;;6.60;1.60;;;;;;;17.34;67.50;101357.72;5054240;28;20446;-69
2023/06/06 05:24:36;;;;;;;5.50;1.47;;;;;;;17.46;68.16;101359.78;5054374;28;20442;-69
2023/06/06 05:27:02;;;;;;;6.00;1.67;;;;;;;17.57;63.30;101352.78;5053903;28;20577;-68
2023/06/06 05:29:30;;;;;;;5.50;1.60;;;;;;;17.68;63.19;101356.78;5054259;28;20516;-67
2023/06/06 05:31:57;;;;;;;6.00;1.53;;;;;;;17.80;63.38;101359.66;5054169;28;20446;-68
2023/06/06 05:34:23;;;;;;;7.57;1.90;;;;;;;17.87;63.42;101356.38;5054149;28;20435;-66
2023/06/06 05:36:50;;;;;;;9.23;1.60;;;;;;;17.97;63.32;101352.44;5053997;28;20461;-67
2023/06/06 05:39:19;;;;;;;5.60;1.70;;;;;;;18.07;62.75;101354.81;5054055;28;20446;-67
2023/06/06 05:41:47;;;;;;;7.07;1.77;;;;;;;18.17;62.03;101359.91;5053700;28;20454;-66
2023/06/06 05:44:13;;;;;;;5.40;1.60;;;;;;;18.30;61.63;101356.09;5054053;28;20842;-66
2023/06/06 05:46:40;;;;;;;4.87;1.17;;;;;;;18.47;61.31;101359.84;5053763;28;20496;-67
2023/06/06 05:49:07;;;;;;;5.70;1.60;;;;;;;18.60;61.16;101356.03;5053853;28;20449;-67
2023/06/06 05:51:34;;;;;;;6.20;1.30;;;;;;;18.73;59.61;101357.72;5053815;28;20438;-66
2023/06/06 05:54:00;;;;;;;9.20;1.70;;;;;;;18.87;58.85;101352.72;5053452;28;20947;-67
2023/06/06 05:56:28;;;;;;;6.73;1.70;;;;;;;18.98;58.95;101364.06;5053625;28;20496;-67
2023/06/06 05:58:55;;;;;;;5.90;1.67;;;;;;;19.11;58.34;101359.41;5053390;28;20529;-67
2023/06/06 06:01:24;;;;;;;5.77;1.50;;;;;;;19.23;58.45;101364.16;5053370;28;20478;-66
2023/06/06 06:03:52;;;;;;;5.40;1.30;;;;;;;19.32;58.85;101362.91;5053584;28;20438;-70
2023/06/06 06:06:19;;;;;;;5.97;1.50;;;;;;;19.46;56.91;101362.56;5053458;28;20497;-67
2023/06/06 06:08:48;;;;;;;6.50;1.70;;;;;;;19.59;56.72;101366.94;5053554;28;20453;-69
2023/06/06 06:11:15;;;;;;;5.83;1.47;;;;;;;19.71;56.09;101379.91;5053323;28;20545;-66
2023/06/06 06:13:43;;;;;;;5.83;1.70;;;;;;;19.83;56.18;101376.34;5053346;28;20444;-67
2023/06/06 06:16:09;;;;;;;5.47;1.40;;;;;;;19.89;56.06;101377.72;5053390;28;20561;-69
2023/06/06 06:18:36;;;;;;;5.10;1.30;;;;;;;20.00;55.07;101391.81;5053148;28;20532;-69
2023/06/06 06:21:02;;;;;;;6.17;1.50;;;;;;;20.10;54.39;101399.63;5053521;28;20880;-68
2023/06/06 06:23:29;;;;;;;6.10;1.47;;;;;;;20.21;54.95;101386.97;5053031;28;20533;-67
2023/06/06 06:25:55;;;;;;;6.20;1.40;;;;;;;20.29;53.52;101385.25;5052774;28;20486;-65
2023/06/06 06:28:23;;;;;;;5.50;1.50;;;;;;;20.38;53.44;101402.41;5053064;28;20460;-65
2023/06/06 06:30:51;;;;;;;7.07;1.80;;;;;;;20.44;53.43;101394.72;5053209;28;20438;-67
2023/06/06 06:33:18;;;;;;;5.40;1.50;;;;;;;20.51;53.14;101397.72;5053224;28;20447;-65
2023/06/06 06:35:45;;;;;;;10.67;2.30;;;;;;;20.55;50.73;101393.13;5053097;28;20441;-66
2023/06/06 06:38:12;;;;;;;10.63;1.33;;;;;;;20.58;50.90;101406.16;5053091;28;20493;-65
2023/06/06 06:40:38;;;;;;;4.90;1.40;;;;;;;20.62;52.10;101399.63;5052874;28;20541;-65
2023/06/06 06:43:05;;;;;;;12.00;1.30;;;;;;;20.65;53.22;101398.94;5053053;28;20460;-66
2023/06/06 06:45:32;;;;;;;7.40;1.70;;;;;;;20.71;54.44;101402.22;5052705;28;20508;-67
2023/06/06 06:48:01;;;;;;;5.83;1.80;;;;;;;20.74;51.90;101409.78;5052931;28;20438;-64
2023/06/06 06:50:28;;;;;;;6.63;1.47;;;;;;;20.78;51.11;101413.44;5052934;28;20450;-64
2023/06/06 06:52:55;;;;;;;5.43;1.30;;;;;;;20.84;49.92;101403.78;5052899;28;20529;-66
2023/06/06 06:55:23;;;;;;;6.97;1.83;;;;;;;20.91;48.16;101409.50;5052890;28;20450;-65
2023/06/06 06:57:51;;;;;;;10.13;1.70;;;;;;;21.04;47.54;101423.22;5052852;28;20473;-65
2023/06/06 07:00:22;;;;;;;6.00;1.63;;;;;;;21.11;47.63;101415.94;5052861;28;20437;-65
2023/06/06 07:02:49;;;;;;;6.13;1.63;;;;;;;21.15;48.25;101407.75;5052863;28;20438;-66
2023/06/06 07:05:18;;;;;;;5.70;1.70;;;;;;;21.21;48.08;101402.81;5052836;28;20446;-65
2023/06/06 07:07:46;;;;;;;4.90;1.33;;;;;;;21.27;47.31;101409.66;5052699;28;20485;-66
2023/06/06 07:10:14;;;;;;;5.60;1.33;;;;;;;21.27;47.92;101404.94;5052895;28;20442;-65
2023/06/06 07:12:40;;;;;;;5.20;1.40;;;;;;;21.28;47.25;101411.25;5053014;28;20438;-66
2023/06/06 07:15:09;;;;;;;7.17;1.77;;;;;;;21.33;47.57;101420.09;5052863;28;20448;-67
2023/06/06 07:17:35;;;;;;;5.37;1.57;;;;;;;21.39;47.01;101406.88;5052757;28;20469;-65
2023/06/06 07:20:07;;;;;;;6.90;1.50;;;;;;;21.49;47.25;101411.06;5055132;28;20477;-66
2023/06/06 07:22:36;;;;;;;6.90;1.30;;;;;;;21.53;47.24;101411.94;5056356;28;20896;-66
2023/06/06 07:25:04;;;;;;;5.77;1.80;;;;;;;21.62;46.44;101407.06;5056023;28;20438;-67
2023/06/06 07:27:33;;;;;;;5.23;1.20;;;;;;;21.69;46.87;101407.22;5057338;28;20497;-66
2023/06/06 07:30:01;;;;;;;5.40;1.33;;;;;;;21.78;46.53;101413.38;5056477;28;20438;-66
2023/06/06 07:32:27;;;;;;;5.40;1.20;;;;;;;21.82;46.49;101411.47;5056221;28;20442;-66
2023/06/06 07:34:55;;;;;;;4.77;1.23;;;;;;;21.88;46.80;101404.53;5056368;28;20442;-67
2023/06/06 07:37:21;;;;;;;5.73;1.50;;;;;;;21.92;47.21;101402.66;5055977;28;20501;-65
2023/06/06 07:39:49;;;;;;;6.77;1.80;;;;;;;21.97;47.40;101403.56;5056085;28;20481;-67
2023/06/06 07:42:16;;;;;;;4.60;1.20;;;;;;;22.00;47.57;101402.81;5056243;28;20446;-66
2023/06/06 07:44:42;;;;;;;5.27;1.40;;;;;;;22.04;46.35;101404.50;5056345;28;20438;-66
2023/06/06 07:47:09;;;;;;;6.70;1.73;;;;;;;22.07;46.21;101405.75;5056064;28;20482;-66
2023/06/06 07:49:36;;;;;;;5.60;1.40;;;;;;;22.15;46.38;101411.09;5056186;28;20442;-66
2023/06/06 07:52:03;;;;;;;6.30;1.67;;;;;;;22.24;46.43;101407.34;5055770;28;20496;-67
2023/06/06 07:54:30;;;;;;;8.90;1.70;;;;;;;22.38;46.87;101408.44;5056099;28;20441;-66
2023/06/06 07:56:59;;;;;;;5.03;1.53;;;;;;;22.49;45.63;101413.41;5055612;28;20545;-67
2023/06/06 07:59:26;;;;;;;4.73;1.30;;;;;;;22.57;44.41;101409.63;5056010;28;20446;-65
2023/06/06 08:01:53;;;;;;;7.13;1.80;;;;;;;22.70;44.90;101413.06;5055891;28;20436;-67
2023/06/06 08:04:19;;;;;;;8.03;1.60;;;;;;;22.79;44.69;101406.13;5056133;28;20544;-66
2023/06/06 08:06:47;;;;;;;6.50;2.20;;;;;;;22.91;45.33;101406.03;5055445;28;20485;-66
2023/06/06 08:09:13;;;;;;;7.73;1.87;;;;;;;23.09;45.04;101419.38;5055878;28;20446;-67
2023/06/06 08:11:40;;;;;;;5.43;1.50;;;;;;;23.23;45.19;101414.13;5055497;28;20500;-66
2023/06/06 08:14:08;;;;;;;4.87;1.33;;;;;;;23.43;44.67;101428.72;5055331;28;20943;-66
2023/06/06 08:16:35;;;;;;;6.40;1.90;;;;;;;23.57;44.99;101428.16;5055559;28;20464;-66
2023/06/06 08:19:01;;;;;;;5.50;1.90;;;;;;;23.71;45.11;101422.88;5055586;28;20438;-66
2023/06/06 08:21:28;;;;;;;5.13;1.50;;;;;;;23.83;44.89;101427.44;5055312;28;20478;-66
2023/06/06 08:23:55;;;;;;;5.23;1.50;;;;;;;23.87;43.82;101423.56;5055137;28;20840;-67
2023/06/06 08:26:25;;;;;;;6.77;1.70;;;;;;;23.89;43.62;101429.50;5055371;28;20555;-66
2023/06/06 08:28:51;;;;;;;7.40;1.80;;;;;;;23.90;44.33;101422.78;5055098;28;20967;-67
2023/06/06 08:31:19;;;;;;;5.10;1.40;;;;;;;23.88;43.82;101421.59;5055032;28;20442;-66
2023/06/06 08:33:47;;;;;;;13.10;1.63;;;;;;;23.96;44.49;101423.28;5055388;28;20461;-67
2023/06/06 08:36:14;;;;;;;6.20;2.07;;;;;;;24.01;43.58;101431.28;5055062;28;20486;-66
2023/06/06 08:38:41;;;;;;;5.33;1.60;;;;;;;24.01;43.65;101425.75;5055016;28;20509;-66
2023/06/06 08:41:09;;;;;;;12.17;1.80;;;;;;;24.04;42.75;101422.22;5055248;28;20492;-66
2023/06/06 08:43:40;;;;;;;7.00;1.90;;;;;;;24.06;42.39;101422.66;5055221;28;20447;-66
2023/06/06 08:46:07;;;;;;;4.97;1.30;;;;;;;24.08;43.15;101413.97;5054820;28;20536;-66
2023/06/06 08:48:35;;;;;;;5.70;1.80;;;;;;;24.14;41.97;101418.03;5055138;28;20541;-66
2023/06/06 08:51:03;;;;;;;5.37;1.70;;;;;;;24.29;43.17;101419.81;5054941;28;20442;-66
2023/06/06 08:53:31;;;;;;;4.97;1.53;;;;;;;24.47;43.59;101420.09;5054622;28;20453;-63
2023/06/06 08:55:58;;;;;;;6.50;1.93;;;;;;;24.54;42.19;101422.97;5055114;28;20464;-67
2023/06/06 08:58:26;;;;;;;5.60;1.90;;;;;;;24.59;41.83;101410.75;5054606;28;20533;-66
2023/06/06 09:00:53;;;;;;;5.53;1.40;;;;;;;24.63;40.49;101420.69;5054832;28;20470;-66
2023/06/06 09:03:21;;;;;;;4.97;1.33;;;;;;;24.69;40.85;101417.59;5054354;28;20482;-69
2023/06/06 09:05:51;;;;;;;5.57;1.60;;;;;;;24.80;41.66;101422.09;5034529;28;20473;-68
2023/06/06 09:08:19;;;;;;;6.10;1.37;;;;;;;24.86;41.67;101415.03;5034491;28;20463;-65
2023/06/06 09:10:45;;;;;;;4.63;1.30;;;;;;;24.96;40.55;101421.06;5034604;28;20439;-65
2023/06/06 09:13:13;;;;;;;5.30;1.67;;;;;;;25.05;40.63;101413.25;5034771;28;20447;-66
2023/06/06 09:15:39;;;;;;;5.53;1.67;;;;;;;25.07;40.36;101419.22;5035098;28;20455;-66
2023/06/06 09:18:06;;;;;;;5.90;1.40;;;;;;;25.09;40.23;101411.34;5034601;28;20443;-67
2023/06/06 09:20:34;;;;;;;5.00;1.40;;;;;;;25.18;42.25;101422.91;5034517;28;20443;-66
2023/06/06 09:23:03;;;;;;;7.00;2.20;;;;;;;25.19;41.43;101419.00;5034535;28;20453;-66
2023/06/06 09:25:31;;;;;;;5.33;1.83;;;;;;;25.22;40.53;101420.97;5034445;28;20443;-66
2023/06/06 09:28:02;;;;;;;5.97;1.93;;;;;;;25.24;40.81;101418.66;5034621;28;20487;-65
2023/06/06 09:30:30;;;;;;;5.07;1.40;;;;;;;25.29;40.95;101421.06;5034374;28;20438;-66
2023/06/06 09:33:00;;;;;;;5.47;1.47;;;;;;;25.40;41.59;101423.94;5034440;28;20454;-66
2023/06/06 09:35:30;;;;;;;4.73;1.40;;;;;;;25.49;40.31;101423.63;5034262;28;20473;-66
2023/06/06 09:37:57;;;;;;;7.30;1.50;;;;;;;25.54;41.56;101426.03;5034520;28;20435;-67
2023/06/06 09:40:27;;;;;;;5.00;1.30;;;;;;;25.58;40.55;101422.09;5033847;28;20967;-65
2023/06/06 09:42:53;;;;;;;5.73;1.80;;;;;;;25.67;42.04;101421.78;5033648;28;20525;-65
2023/06/06 09:45:21;;;;;;;5.70;1.50;;;;;;;25.74;41.33;101419.06;5034108;28;20542;-65
2023/06/06 09:47:49;;;;;;;5.63;1.63;;;;;;;25.79;40.40;101421.53;5042184;28;20926;-67
2023/06/06 09:50:17;;;;;;;6.43;2.07;;;;;;;25.83;40.45;101416.00;5053981;28;20815;-66
2023/06/06 09:52:44;;;;;;;6.83;1.80;;;;;;;25.81;40.34;101416.41;5053901;28;20477;-66
2023/06/06 09:55:13;;;;;;;8.43;2.70;;;;;;;25.77;40.80;101420.34;5053594;28;20446;-66
2023/06/06 09:57:41;;;;;;;7.00;1.97;;;;;;;25.68;39.88;101417.84;5053932;28;20494;-67
2023/06/06 10:00:12;;;;;;;6.73;1.60;;;;;;;25.68;39.42;101420.63;5054179;28;20436;-68
2023/06/06 10:02:42;;;;;;;6.83;2.30;;;;;;;25.75;38.93;101423.44;5038106;28;20459;-66
2023/06/06 10:05:12;;;;;;;5.60;1.70;;;;;;;25.79;39.54;101415.97;5033978;28;20469;-67
2023/06/06 10:07:41;;;;;;;6.37;1.80;;;;;;;25.87;39.91;101411.28;5033689;28;20486;-67
2023/06/06 10:10:11;;;;;;;6.03;2.10;;;;;;;25.86;38.91;101412.47;5033734;28;20444;-67
2023/06/06 10:12:38;;;;;;;6.10;1.60;;;;;;;25.98;39.66;101414.91;5033692;28;20443;-67
2023/06/06 10:15:09;;;;;;;11.17;1.80;;;;;;;26.14;38.59;101409.88;5033648;28;20538;-67
2023/06/06 10:17:37;;;;;;;5.63;1.87;;;;;;;26.38;39.43;101410.38;5033880;28;20470;-66
2023/06/06 10:20:06;;;;;;;6.70;1.60;;;;;;;26.63;38.68;101416.09;5033594;28;20451;-66
2023/06/06 10:22:34;;;;;;;5.47;1.60;;;;;;;26.84;39.59;101412.59;5033646;28;20450;-67
2023/06/06 10:25:01;;;;;;;7.93;2.30;;;;;;;27.05;38.98;101417.41;5033505;28;20451;-68
2023/06/06 10:27:36;;;;;;;7.70;2.00;;;;;;;27.22;39.41;101413.09;5033129;28;20537;-67
2023/06/06 10:30:11;;;;;;;6.37;2.20;;;;;;;27.33;38.40;101411.94;5033183;28;20427;-68
2023/06/06 10:32:49;;;;;;;5.67;1.77;;;;;;;27.32;38.11;101412.34;5033489;28;20446;-67
2023/06/06 10:35:16;;;;;;;7.93;2.30;;;;;;;27.27;37.86;101421.06;5033189;28;20931;-67
2023/06/06 10:37:42;;;;;;;8.97;1.77;;;;;;;27.14;38.40;101415.91;5032917;28;20848;-67
2023/06/06 10:40:15;;;;;;;5.87;1.97;;;;;;;27.11;38.95;101419.47;5033334;28;20443;-68
2023/06/06 10:42:42;;;;;;;5.60;1.77;;;;;;;26.95;38.20;101423.75;5033371;28;20435;-64
2023/06/06 10:45:10;;;;;;;8.60;1.83;;;;;;;26.76;38.41;101420.13;5033197;28;20819;-65
2023/06/06 10:47:39;;;;;;;5.23;1.60;;;;;;;26.61;39.41;101418.47;5033063;28;20857;-64
2023/06/06 10:50:23;;;;;;;7.80;2.40;;;;;;;26.36;39.01;101421.09;5032842;28;20947;-65
2023/06/06 10:52:51;;;;;;;7.30;2.00;;;;;;;26.19;39.05;101410.69;5032826;28;20455;-65
2023/06/06 10:55:38;;;;;;;6.27;2.17;;;;;;;26.11;39.54;101415.41;5035833;28;20936;-66
2023/06/06 10:58:06;;;;;;;6.33;1.93;;;;;;;26.08;38.54;101407.84;5037286;28;20527;-68
2023/06/06 11:00:35;;;;;;;8.13;2.50;;;;;;;26.17;40.15;101413.84;5037238;28;20874;-67
2023/06/06 11:03:05;;;;;;;5.10;1.80;;;;;;;26.34;39.47;101418.72;5037235;28;20820;-68
2023/06/06 11:05:32;;;;;;;6.67;1.67;;;;;;;26.45;39.28;101409.66;5037150;28;20546;-66
2023/06/06 11:08:00;;;;;;;5.53;1.83;;;;;;;26.59;39.55;101406.94;5048525;28;20573;-66
2023/06/06 11:10:27;;;;;;;6.30;2.40;;;;;;;26.74;39.95;101403.03;5057063;28;20446;-66
2023/06/06 11:12:54;;;;;;;8.80;1.50;;;;;;;26.86;39.30;101405.44;5056783;28;20528;-66
2023/06/06 11:15:28;;;;;;;5.33;1.67;;;;;;;26.72;38.79;101397.06;5056666;28;20966;-66
2023/06/06 11:18:02;;;;;;;5.83;2.20;;;;;;;26.80;39.09;101400.69;5056815;28;20444;-67
2023/06/06 11:20:30;;;;;;;11.40;2.40;;;;;;;26.79;38.72;101402.66;5056749;28;20436;-67
2023/06/06 11:23:01;;;;;;;5.50;1.90;;;;;;;26.68;38.35;101399.03;5056684;28;20800;-67
2023/06/06 11:25:30;;;;;;;5.80;1.97;;;;;;;26.69;38.00;101392.28;5056629;28;20435;-69
2023/06/06 11:27:57;;;;;;;5.23;2.00;;;;;;;26.70;38.71;101391.13;5056160;28;20491;-66
2023/06/06 11:30:24;;;;;;;5.33;1.83;;;;;;;26.77;39.91;101396.69;5056241;28;20525;-66